createdAt,value
2023-04-21T00:02:48.225Z,25.10
2023-04-21T00:06:01.478Z,25.00
2023-04-21T00:09:09.518Z,25.00
2023-04-21T00:12:22.458Z,25.10
2023-04-21T00:15:35.409Z,25.20
2023-04-21T00:18:48.608Z,25.40
2023-04-21T00:21:59.808Z,25.50
2023-04-21T00:25:12.821Z,25.40
2023-04-21T00:28:22.133Z,25.30
2023-04-21T00:31:36.921Z,25.20
2023-04-21T00:34:48.635Z,25.10
2023-04-21T00:38:00.222Z,25.00
2023-04-21T00:41:11.006Z,24.90
2023-04-21T00:44:21.540Z,24.90
2023-04-21T00:47:31.574Z,24.90
2023-04-21T00:50:44.960Z,24.90
2023-04-21T00:54:00.335Z,24.90
2023-04-21T00:57:09.080Z,24.80
2023-04-21T01:00:24.554Z,24.80
2023-04-21T01:03:36.447Z,24.80
2023-04-21T01:06:49.433Z,24.70
2023-04-21T01:10:01.573Z,24.70
2023-04-21T01:13:13.108Z,24.70
2023-04-21T01:16:24.891Z,24.70
2023-04-21T01:19:37.565Z,24.70
2023-04-21T01:22:50.568Z,24.70
2023-04-21T01:26:02.189Z,24.60
2023-04-21T01:29:14.394Z,24.60
2023-04-21T01:32:26.021Z,24.60
2023-04-21T01:35:38.028Z,24.60
2023-04-21T01:38:48.666Z,24.60
2023-04-21T01:42:02.750Z,24.50
2023-04-21T01:45:18.093Z,24.50
2023-04-21T01:48:28.072Z,24.50
2023-04-21T01:51:40.107Z,24.50
2023-04-21T01:54:51.470Z,24.50
2023-04-21T01:58:02.707Z,24.40
2023-04-21T02:01:15.703Z,24.40
2023-04-21T02:04:29.044Z,24.50
2023-04-21T02:07:38.780Z,24.50
2023-04-21T02:10:54.961Z,24.40
2023-04-21T02:14:09.015Z,24.40
2023-04-21T02:17:24.527Z,24.40
2023-04-21T02:20:35.975Z,24.40
2023-04-21T02:23:49.648Z,24.40
2023-04-21T02:27:00.353Z,24.30
2023-04-21T02:30:16.603Z,24.30
2023-04-21T02:33:25.220Z,24.30
2023-04-21T02:36:38.084Z,24.40
2023-04-21T02:39:51.288Z,24.30
2023-04-21T02:42:58.814Z,24.30
2023-04-21T02:46:14.519Z,24.30
2023-04-21T02:49:28.535Z,24.30
2023-04-21T02:52:42.345Z,24.30
2023-04-21T02:55:56.308Z,24.30
2023-04-21T02:59:09.746Z,24.20
2023-04-21T03:02:22.244Z,24.30
2023-04-21T03:05:36.705Z,24.30
2023-04-21T03:08:49.844Z,24.30
2023-04-21T03:11:59.760Z,24.20
2023-04-21T03:15:15.471Z,24.10
2023-04-21T03:18:29.205Z,24.30
2023-04-21T03:21:40.882Z,24.50
2023-04-21T03:24:52.111Z,24.60
2023-04-21T03:28:02.152Z,24.80
2023-04-21T03:31:15.232Z,24.90
2023-04-21T03:34:28.054Z,25.00
2023-04-21T03:37:38.549Z,25.10
2023-04-21T03:40:52.940Z,25.30
2023-04-21T03:44:05.209Z,25.40
2023-04-21T03:47:18.558Z,25.50
2023-04-21T03:50:29.768Z,25.60
2023-04-21T03:53:42.311Z,25.70
2023-04-21T03:56:55.554Z,25.80
2023-04-21T04:00:14.443Z,25.70
2023-04-21T04:03:23.617Z,25.50
2023-04-21T04:06:38.122Z,25.50
2023-04-21T04:09:49.686Z,25.60
2023-04-21T04:13:01.713Z,25.70
2023-04-21T04:16:15.154Z,25.80
2023-04-21T04:19:28.199Z,25.80
2023-04-21T04:22:38.347Z,25.70
2023-04-21T04:25:55.067Z,25.60
2023-04-21T04:29:06.761Z,25.50
2023-04-21T04:32:16.881Z,25.50
2023-04-21T04:35:30.079Z,25.70
2023-04-21T04:38:39.657Z,25.70
2023-04-21T04:41:53.374Z,25.80
2023-04-21T04:45:05.004Z,25.90
2023-04-21T04:48:19.075Z,25.90
2023-04-21T04:51:34.364Z,25.90
2023-04-21T04:54:45.033Z,25.70
2023-04-21T04:57:57.619Z,25.60
2023-04-21T05:01:16.769Z,25.60
2023-04-21T05:04:32.682Z,25.70
2023-04-21T05:07:45.790Z,25.70
2023-04-21T05:10:52.751Z,25.90
2023-04-21T05:14:03.277Z,25.90
2023-04-21T05:17:15.624Z,25.90
2023-04-21T05:20:24.447Z,25.80
2023-04-21T05:23:39.028Z,25.70
2023-04-21T05:26:50.227Z,25.50
2023-04-21T05:29:58.115Z,25.50
2023-04-21T05:33:11.748Z,25.50
2023-04-21T05:36:23.528Z,25.60
2023-04-21T05:39:37.515Z,25.70
2023-04-21T05:42:52.280Z,25.80
2023-04-21T05:46:03.230Z,25.90
2023-04-21T05:49:13.539Z,25.90
2023-04-21T05:52:25.360Z,25.90
2023-04-21T05:55:39.947Z,25.70
2023-04-21T05:58:51.948Z,25.60
2023-04-21T06:02:03.295Z,25.50
2023-04-21T06:05:18.325Z,25.40
2023-04-21T06:08:31.584Z,25.50
2023-04-21T06:11:37.249Z,25.60
2023-04-21T06:14:48.818Z,25.70
2023-04-21T06:18:00.515Z,25.80
2023-04-21T06:21:14.740Z,25.90
2023-04-21T06:24:29.242Z,26.00
2023-04-21T06:27:41.429Z,26.00
2023-04-21T06:30:54.065Z,25.80
2023-04-21T06:34:03.720Z,25.70
2023-04-21T06:37:15.172Z,25.50
2023-04-21T06:40:27.916Z,25.50
2023-04-21T06:43:39.453Z,25.50
2023-04-21T06:46:47.944Z,25.60
2023-04-21T06:49:55.600Z,25.80
2023-04-21T06:53:07.362Z,25.90
2023-04-21T06:56:19.692Z,25.90
2023-04-21T06:59:33.719Z,25.70
2023-04-21T07:02:46.278Z,25.60
2023-04-21T07:05:57.598Z,25.50
2023-04-21T07:09:09.840Z,25.50
2023-04-21T07:12:22.263Z,25.50
2023-04-21T07:15:34.711Z,25.60
2023-04-21T07:18:49.583Z,25.80
2023-04-21T07:22:01.016Z,25.90
2023-04-21T07:25:14.501Z,26.00
2023-04-21T07:28:27.297Z,26.00
2023-04-21T07:31:41.668Z,25.90
2023-04-21T07:34:54.187Z,25.80
2023-04-21T07:38:02.485Z,25.70
2023-04-21T07:41:11.242Z,25.60
2023-04-21T07:44:24.591Z,25.50
2023-04-21T07:47:36.090Z,25.40
2023-04-21T07:50:49.092Z,25.50
2023-04-21T07:54:06.242Z,25.60
2023-04-21T07:57:19.088Z,25.70
2023-04-21T08:00:29.567Z,25.90
2023-04-21T08:03:42.679Z,25.90
2023-04-21T08:06:55.630Z,25.80
2023-04-21T08:10:09.950Z,25.70
2023-04-21T08:13:19.776Z,25.60
2023-04-21T08:16:29.673Z,25.50
2023-04-21T08:19:42.456Z,25.70
2023-04-21T08:22:57.535Z,25.80
2023-04-21T08:26:07.227Z,25.90
2023-04-21T08:29:18.494Z,26.00
2023-04-21T08:32:28.405Z,25.90
2023-04-21T08:35:39.642Z,25.80
2023-04-21T08:38:51.173Z,25.70
2023-04-21T08:42:01.156Z,25.60
2023-04-21T08:45:14.464Z,25.50
2023-04-21T08:48:25.979Z,25.60
2023-04-21T08:51:37.960Z,25.70
2023-04-21T08:54:51.655Z,25.80
2023-04-21T08:58:03.875Z,25.90
2023-04-21T09:01:17.094Z,25.80
2023-04-21T09:04:26.114Z,25.70
2023-04-21T09:07:42.005Z,25.60
2023-04-21T09:10:53.952Z,25.50
2023-04-21T09:14:05.940Z,25.50
2023-04-21T09:17:20.866Z,25.60
2023-04-21T09:20:31.795Z,25.80
2023-04-21T09:23:52.274Z,25.90
2023-04-21T09:27:03.862Z,25.90
2023-04-21T09:30:21.173Z,25.80
2023-04-21T09:33:42.554Z,25.70
2023-04-21T09:36:47.897Z,25.60
2023-04-21T09:43:16.786Z,25.50
2023-04-21T09:46:27.526Z,25.60
2023-04-21T09:49:43.480Z,25.80
2023-04-21T09:52:55.393Z,25.90
2023-04-21T09:56:07.616Z,26.00
2023-04-21T09:59:23.541Z,26.10
2023-04-21T10:02:38.851Z,26.00
2023-04-21T10:05:52.014Z,25.90
2023-04-21T10:09:00.028Z,25.70
2023-04-21T10:12:15.273Z,25.70
2023-04-21T10:15:38.353Z,25.60
2023-04-21T10:18:49.682Z,25.50
2023-04-21T10:22:03.455Z,25.50
2023-04-21T10:25:18.799Z,25.70
2023-04-21T10:28:32.826Z,25.80
2023-04-21T10:31:44.283Z,26.00
2023-04-21T10:34:56.604Z,26.00
2023-04-21T10:38:09.418Z,25.80
2023-04-21T10:41:38.820Z,25.70
2023-04-21T10:44:50.963Z,25.60
2023-04-21T10:48:05.607Z,25.50
2023-04-21T10:51:16.187Z,25.50
2023-04-21T10:57:47.834Z,25.70
2023-04-21T11:01:05.149Z,25.90
2023-04-21T11:04:18.149Z,26.00
2023-04-21T11:07:28.723Z,26.10
2023-04-21T11:10:52.808Z,26.10
2023-04-21T11:14:09.036Z,25.90
2023-04-21T11:17:19.463Z,25.80
2023-04-21T11:20:33.607Z,25.70
2023-04-21T11:23:45.678Z,25.60
2023-04-21T11:26:55.472Z,25.50
2023-04-21T11:30:08.577Z,25.50
2023-04-21T11:33:19.313Z,25.50
2023-04-21T11:36:31.691Z,25.50
2023-04-21T11:39:46.210Z,25.50
2023-04-21T11:42:55.906Z,25.50
2023-04-21T11:46:37.573Z,25.50
2023-04-21T11:49:56.560Z,25.50
2023-04-21T11:53:08.377Z,25.50
2023-04-21T11:56:20.245Z,25.50
2023-04-21T11:59:31.225Z,25.50
2023-04-21T12:02:46.655Z,25.50
2023-04-21T12:06:01.974Z,25.50
2023-04-21T12:09:16.117Z,25.50
2023-04-21T12:12:28.400Z,25.40
2023-04-21T12:15:41.895Z,25.50
2023-04-21T12:18:54.577Z,25.50
2023-04-21T12:22:07.644Z,25.50
2023-04-21T12:25:23.772Z,25.50
2023-04-21T12:28:33.694Z,25.50
2023-04-21T12:31:45.029Z,25.50
2023-04-21T12:34:54.159Z,25.60
2023-04-21T12:38:06.295Z,25.60
2023-04-21T12:41:16.755Z,25.50
2023-04-21T12:44:29.930Z,25.50
2023-04-21T12:47:37.442Z,25.50
2023-04-21T12:50:49.165Z,25.50
2023-04-21T12:54:01.186Z,25.60
2023-04-21T12:57:15.374Z,25.50
2023-04-21T13:00:26.471Z,25.50
2023-04-21T13:03:40.587Z,25.60
2023-04-21T13:06:52.083Z,25.60
2023-04-21T13:10:05.661Z,25.60
2023-04-21T13:13:18.517Z,25.60
2023-04-21T13:16:32.020Z,25.70
2023-04-21T13:19:43.722Z,25.70
2023-04-21T13:22:53.243Z,25.80
2023-04-21T13:26:02.654Z,25.80
2023-04-21T13:29:14.159Z,25.80
2023-04-21T13:32:25.636Z,25.80
2023-04-21T13:35:41.276Z,25.90
2023-04-21T13:38:52.646Z,25.90
2023-04-21T13:42:02.440Z,25.90
2023-04-21T13:45:14.189Z,25.90
2023-04-21T13:48:29.107Z,25.90
2023-04-21T13:51:42.575Z,25.90
2023-04-21T13:54:55.225Z,25.90
2023-04-21T13:58:08.297Z,25.90
2023-04-21T14:01:17.577Z,25.90
2023-04-21T14:04:26.734Z,26.00
2023-04-21T14:07:37.633Z,26.00
2023-04-21T14:10:49.901Z,26.00
2023-04-21T14:14:08.993Z,25.90
2023-04-21T14:17:12.117Z,26.00
2023-04-21T14:20:23.612Z,25.90
2023-04-21T14:23:36.642Z,25.90
2023-04-21T14:26:46.221Z,25.90
2023-04-21T14:30:01.651Z,25.90
2023-04-21T14:33:11.982Z,25.80
2023-04-21T14:36:22.160Z,25.80
2023-04-21T14:39:34.420Z,25.80
2023-04-21T14:42:46.496Z,25.80
2023-04-21T14:45:56.433Z,25.80
2023-04-21T14:49:11.113Z,25.80
2023-04-21T14:52:20.973Z,25.90
2023-04-21T14:55:30.253Z,25.90
2023-04-21T14:58:39.254Z,25.90
2023-04-21T15:01:50.534Z,25.90
2023-04-21T15:05:02.342Z,26.00
2023-04-21T15:08:15.219Z,26.00
2023-04-21T15:11:30.183Z,26.10
2023-04-21T15:14:41.818Z,26.10
2023-04-21T15:17:54.654Z,26.20
2023-04-21T15:21:05.639Z,26.20
2023-04-21T15:24:15.137Z,26.20
2023-04-21T15:27:27.723Z,26.20
2023-04-21T15:30:39.334Z,26.20
2023-04-21T15:33:50.617Z,26.30
2023-04-21T15:37:04.355Z,26.30
2023-04-21T15:40:19.681Z,26.30
2023-04-21T15:43:34.650Z,26.30
2023-04-21T15:46:45.639Z,26.30
2023-04-21T15:49:57.515Z,26.40
2023-04-21T15:53:09.263Z,26.40
2023-04-21T15:56:21.194Z,26.50
2023-04-21T15:59:34.644Z,26.50
2023-04-21T16:02:44.899Z,26.50
2023-04-21T16:05:58.382Z,26.50
2023-04-21T16:09:10.980Z,26.50
2023-04-21T16:12:22.050Z,26.50
2023-04-21T16:15:33.743Z,26.60
2023-04-21T16:18:45.654Z,26.60
2023-04-21T16:21:59.058Z,26.60
2023-04-21T16:25:09.627Z,26.60
2023-04-21T16:28:20.441Z,26.60
2023-04-21T16:31:33.574Z,26.70
2023-04-21T16:34:47.112Z,26.70
2023-04-21T16:37:59.896Z,26.70
2023-04-21T16:41:14.811Z,26.70
2023-04-21T16:44:24.638Z,26.60
2023-04-21T16:47:42.020Z,26.60
2023-04-21T16:50:51.586Z,26.70
2023-04-21T16:54:03.432Z,26.70
2023-04-21T16:57:16.673Z,26.70
2023-04-21T17:00:29.334Z,26.70
2023-04-21T17:03:44.296Z,26.70
2023-04-21T17:06:57.911Z,26.70
2023-04-21T17:10:10.599Z,26.70
2023-04-21T17:13:21.698Z,26.70
2023-04-21T17:16:33.982Z,26.70
2023-04-21T17:19:44.086Z,26.70
2023-04-21T17:22:54.060Z,26.70
2023-04-21T17:26:03.143Z,26.60
2023-04-21T17:29:14.854Z,26.70
2023-04-21T17:32:24.612Z,26.70
2023-04-21T17:35:36.516Z,26.70
2023-04-21T17:38:50.642Z,26.70
2023-04-21T17:42:06.600Z,26.60
2023-04-21T17:45:16.269Z,26.60
2023-04-21T17:48:26.534Z,26.60
2023-04-21T17:51:40.823Z,26.60
2023-04-21T17:54:51.973Z,26.70
2023-04-21T17:58:03.437Z,26.70
2023-04-21T18:01:15.137Z,26.80
2023-04-21T18:04:30.073Z,26.80
2023-04-21T18:07:40.380Z,26.80
2023-04-21T18:10:53.806Z,26.70
2023-04-21T18:14:03.766Z,26.70
2023-04-21T18:17:13.739Z,26.70
2023-04-21T18:20:28.851Z,26.70
2023-04-21T18:23:39.808Z,26.70
2023-04-21T18:26:52.788Z,26.60
2023-04-21T18:30:00.037Z,26.70
2023-04-21T18:33:11.656Z,26.70
2023-04-21T18:36:23.260Z,26.70
2023-04-21T18:39:33.735Z,26.60
2023-04-21T18:42:50.022Z,26.60
2023-04-21T18:46:03.656Z,26.60
2023-04-21T18:49:15.848Z,26.70
2023-04-21T18:52:28.753Z,26.70
2023-04-21T18:55:39.640Z,26.50
2023-04-21T18:58:50.947Z,26.50
2023-04-21T19:02:04.274Z,26.50
2023-04-21T19:05:16.067Z,26.60
2023-04-21T19:08:41.487Z,26.60
2023-04-21T19:11:42.801Z,26.50
2023-04-21T19:14:55.829Z,26.50
2023-04-21T19:18:06.454Z,26.50
2023-04-21T19:21:18.666Z,26.50
2023-04-21T19:27:48.962Z,26.40
2023-04-21T19:31:02.867Z,26.40
2023-04-21T19:34:12.811Z,26.40
2023-04-21T19:37:23.781Z,26.40
2023-04-21T19:40:34.996Z,26.40
2023-04-21T19:43:45.795Z,26.40
2023-04-21T19:46:57.790Z,26.40
2023-04-21T19:50:08.769Z,26.40
2023-04-21T19:56:33.399Z,26.40
2023-04-21T19:59:48.069Z,26.40
2023-04-21T20:02:59.146Z,26.40
2023-04-21T20:06:13.345Z,26.40
2023-04-21T20:09:24.177Z,26.40
2023-04-21T20:12:36.441Z,26.40
2023-04-21T20:15:48.412Z,26.40
2023-04-21T20:18:58.735Z,26.40
2023-04-21T20:22:11.395Z,26.40
2023-04-21T20:25:23.270Z,26.40
2023-04-21T20:28:32.818Z,26.40
2023-04-21T20:31:43.650Z,26.40
2023-04-21T20:34:55.139Z,26.40
2023-04-21T20:38:07.257Z,26.40
2023-04-21T20:41:19.103Z,26.40
2023-04-21T20:44:32.795Z,26.40
2023-04-21T20:47:45.967Z,26.40
2023-04-21T20:50:58.137Z,26.50
2023-04-21T20:54:09.605Z,26.40
2023-04-21T20:57:19.292Z,26.40
2023-04-21T21:00:30.304Z,26.40
2023-04-21T21:03:42.023Z,26.50
2023-04-21T21:06:53.696Z,26.50
2023-04-21T21:10:04.037Z,26.40
2023-04-21T21:13:15.871Z,26.40
2023-04-21T21:16:24.980Z,26.50
2023-04-21T21:19:36.465Z,26.60
2023-04-21T21:22:47.889Z,26.60
2023-04-21T21:29:12.663Z,26.50
2023-04-21T21:32:25.447Z,26.50
2023-04-21T21:35:36.790Z,26.50
2023-04-21T21:38:47.944Z,26.50
2023-04-21T21:42:02.312Z,26.40
2023-04-21T21:45:19.581Z,26.40
2023-04-21T21:48:31.462Z,26.40
2023-04-21T21:51:45.191Z,26.50
2023-04-21T21:54:56.873Z,26.40
2023-04-21T21:58:08.401Z,26.40
2023-04-21T22:01:20.069Z,26.40
2023-04-21T22:04:30.097Z,26.30
2023-04-21T22:07:44.168Z,26.30
2023-04-21T22:14:22.180Z,26.30
2023-04-21T22:17:21.096Z,26.30
2023-04-21T22:20:34.619Z,26.30
2023-04-21T22:23:48.215Z,26.30
2023-04-21T22:26:57.862Z,26.20
2023-04-21T22:30:11.452Z,26.20
2023-04-21T22:33:24.582Z,26.20
2023-04-21T22:36:33.098Z,26.30
2023-04-21T22:39:44.769Z,26.20
2023-04-21T22:42:53.256Z,26.20
2023-04-21T22:46:04.757Z,26.20
2023-04-21T22:49:16.194Z,26.30
2023-04-21T22:52:27.674Z,26.20
2023-04-21T22:55:39.679Z,26.20
2023-04-21T22:58:48.800Z,26.20
2023-04-21T23:01:57.621Z,26.20
2023-04-21T23:05:08.572Z,26.20
2023-04-21T23:08:18.794Z,26.20
2023-04-21T23:11:27.812Z,26.10
2023-04-21T23:14:36.984Z,26.20
2023-04-21T23:17:47.286Z,26.20
2023-04-21T23:20:58.062Z,26.20
2023-04-21T23:24:10.239Z,26.20
2023-04-21T23:27:19.104Z,26.10
2023-04-21T23:30:31.125Z,26.20
2023-04-21T23:33:39.936Z,26.20
2023-04-21T23:36:49.779Z,26.20
2023-04-21T23:40:01.466Z,26.10
2023-04-21T23:43:12.005Z,26.10
2023-04-21T23:46:24.442Z,26.00
2023-04-21T23:49:35.130Z,26.00
2023-04-21T23:52:44.817Z,26.00
2023-04-21T23:55:58.592Z,26.00
2023-04-21T23:59:09.010Z,26.00
